sensor_id;sensor_type;location;lat;lon;timestamp;temperature;humidity
1351;DHT22;669;50.206;9.998;2024-02-15T00:01:42;8.50;51.00
1351;DHT22;669;50.206;9.998;2024-02-15T00:04:11;8.50;51.00
1351;DHT22;669;50.206;9.998;2024-02-15T00:06:39;8.50;51.00
1351;DHT22;669;50.206;9.998;2024-02-15T00:09:07;8.50;51.20
1351;DHT22;669;50.206;9.998;2024-02-15T00:11:35;8.50;51.20
1351;DHT22;669;50.206;9.998;2024-02-15T00:14:06;8.50;51.30
1351;DHT22;669;50.206;9.998;2024-02-15T00:16:34;8.50;51.30
1351;DHT22;669;50.206;9.998;2024-02-15T00:19:03;8.40;51.30
1351;DHT22;669;50.206;9.998;2024-02-15T00:21:32;8.50;51.30
1351;DHT22;669;50.206;9.998;2024-02-15T00:24:02;8.50;51.20
1351;DHT22;669;50.206;9.998;2024-02-15T00:26:30;8.50;51.10
1351;DHT22;669;50.206;9.998;2024-02-15T00:28:59;8.50;51.10
1351;DHT22;669;50.206;9.998;2024-02-15T00:31:27;8.50;51.30
1351;DHT22;669;50.206;9.998;2024-02-15T00:33:55;8.50;51.30
1351;DHT22;669;50.206;9.998;2024-02-15T00:36:24;8.50;51.30
1351;DHT22;669;50.206;9.998;2024-02-15T00:38:53;8.50;51.40
1351;DHT22;669;50.206;9.998;2024-02-15T00:41:22;8.50;51.30
1351;DHT22;669;50.206;9.998;2024-02-15T00:43:50;8.50;51.30
1351;DHT22;669;50.206;9.998;2024-02-15T00:46:18;8.50;51.20
1351;DHT22;669;50.206;9.998;2024-02-15T00:48:46;8.50;51.20
1351;DHT22;669;50.206;9.998;2024-02-15T00:51:14;8.50;51.30
1351;DHT22;669;50.206;9.998;2024-02-15T00:53:42;8.50;51.40
1351;DHT22;669;50.206;9.998;2024-02-15T00:56:12;8.50;51.50
1351;DHT22;669;50.206;9.998;2024-02-15T00:58:40;8.40;51.40
1351;DHT22;669;50.206;9.998;2024-02-15T01:01:08;8.40;51.60
1351;DHT22;669;50.206;9.998;2024-02-15T01:03:37;8.40;51.40
1351;DHT22;669;50.206;9.998;2024-02-15T01:06:05;8.40;51.40
1351;DHT22;669;50.206;9.998;2024-02-15T01:08:34;8.40;51.40
1351;DHT22;669;50.206;9.998;2024-02-15T01:11:03;8.40;51.40
1351;DHT22;669;50.206;9.998;2024-02-15T01:13:34;8.40;51.30
1351;DHT22;669;50.206;9.998;2024-02-15T01:16:02;8.40;51.20
1351;DHT22;669;50.206;9.998;2024-02-15T01:18:31;8.40;51.20
1351;DHT22;669;50.206;9.998;2024-02-15T01:20:59;8.40;51.10
1351;DHT22;669;50.206;9.998;2024-02-15T01:23:27;8.40;51.10
1351;DHT22;669;50.206;9.998;2024-02-15T01:25:55;8.40;51.30
1351;DHT22;669;50.206;9.998;2024-02-15T01:28:24;8.40;51.40
1351;DHT22;669;50.206;9.998;2024-02-15T01:30:53;8.40;51.40
1351;DHT22;669;50.206;9.998;2024-02-15T01:33:22;8.40;51.20
1351;DHT22;669;50.206;9.998;2024-02-15T01:35:50;8.40;51.30
1351;DHT22;669;50.206;9.998;2024-02-15T01:38:18;8.40;51.30
1351;DHT22;669;50.206;9.998;2024-02-15T01:40:47;8.40;51.30
1351;DHT22;669;50.206;9.998;2024-02-15T01:43:15;8.40;51.40
1351;DHT22;669;50.206;9.998;2024-02-15T01:45:43;8.40;51.40
1351;DHT22;669;50.206;9.998;2024-02-15T01:48:15;8.40;51.30
1351;DHT22;669;50.206;9.998;2024-02-15T01:50:44;8.40;51.30
1351;DHT22;669;50.206;9.998;2024-02-15T01:53:13;8.40;51.40
1351;DHT22;669;50.206;9.998;2024-02-15T01:55:41;8.40;51.20
1351;DHT22;669;50.206;9.998;2024-02-15T01:58:09;8.50;50.90
1351;DHT22;669;50.206;9.998;2024-02-15T02:00:37;8.50;50.90
1351;DHT22;669;50.206;9.998;2024-02-15T02:03:06;8.60;50.80
1351;DHT22;669;50.206;9.998;2024-02-15T02:05:38;8.60;50.80
1351;DHT22;669;50.206;9.998;2024-02-15T02:08:07;8.70;50.80
1351;DHT22;669;50.206;9.998;2024-02-15T02:10:36;8.70;50.70
1351;DHT22;669;50.206;9.998;2024-02-15T02:13:05;8.70;51.00
1351;DHT22;669;50.206;9.998;2024-02-15T02:15:33;8.70;51.10
1351;DHT22;669;50.206;9.998;2024-02-15T02:18:01;8.80;51.20
1351;DHT22;669;50.206;9.998;2024-02-15T02:20:29;8.70;51.50
1351;DHT22;669;50.206;9.998;2024-02-15T02:23:03;8.70;51.70
1351;DHT22;669;50.206;9.998;2024-02-15T02:25:36;8.60;51.60
1351;DHT22;669;50.206;9.998;2024-02-15T02:28:05;8.60;51.80
1351;DHT22;669;50.206;9.998;2024-02-15T02:30:34;8.60;51.70
1351;DHT22;669;50.206;9.998;2024-02-15T02:33:02;8.60;51.70
1351;DHT22;669;50.206;9.998;2024-02-15T02:35:32;8.60;51.50
1351;DHT22;669;50.206;9.998;2024-02-15T02:38:02;8.70;51.40
1351;DHT22;669;50.206;9.998;2024-02-15T02:40:30;8.70;51.20
1351;DHT22;669;50.206;9.998;2024-02-15T02:43:00;8.80;51.40
1351;DHT22;669;50.206;9.998;2024-02-15T02:45:27;8.80;51.50
1351;DHT22;669;50.206;9.998;2024-02-15T02:47:56;8.90;51.60
1351;DHT22;669;50.206;9.998;2024-02-15T02:50:24;8.90;51.70
1351;DHT22;669;50.206;9.998;2024-02-15T02:52:52;8.90;51.70
1351;DHT22;669;50.206;9.998;2024-02-15T02:55:20;8.90;51.80
1351;DHT22;669;50.206;9.998;2024-02-15T02:57:48;8.90;51.70
1351;DHT22;669;50.206;9.998;2024-02-15T03:00:18;9.00;52.40
1351;DHT22;669;50.206;9.998;2024-02-15T03:02:47;9.00;51.80
1351;DHT22;669;50.206;9.998;2024-02-15T03:05:15;9.00;51.80
1351;DHT22;669;50.206;9.998;2024-02-15T03:07:43;9.10;52.60
1351;DHT22;669;50.206;9.998;2024-02-15T03:10:12;9.10;51.90
1351;DHT22;669;50.206;9.998;2024-02-15T03:12:41;9.20;52.20
1351;DHT22;669;50.206;9.998;2024-02-15T03:15:15;9.20;52.40
1351;DHT22;669;50.206;9.998;2024-02-15T03:17:47;9.20;52.50
1351;DHT22;669;50.206;9.998;2024-02-15T03:20:16;9.20;52.50
1351;DHT22;669;50.206;9.998;2024-02-15T03:22:53;9.20;52.60
1351;DHT22;669;50.206;9.998;2024-02-15T03:25:22;9.20;52.60
1351;DHT22;669;50.206;9.998;2024-02-15T03:27:51;9.20;52.60
1351;DHT22;669;50.206;9.998;2024-02-15T03:30:20;9.30;52.90
1351;DHT22;669;50.206;9.998;2024-02-15T03:32:50;9.30;53.10
1351;DHT22;669;50.206;9.998;2024-02-15T03:35:20;9.20;52.90
1351;DHT22;669;50.206;9.998;2024-02-15T03:37:49;9.20;53.00
1351;DHT22;669;50.206;9.998;2024-02-15T03:40:19;9.20;52.90
1351;DHT22;669;50.206;9.998;2024-02-15T03:42:47;9.20;52.90
1351;DHT22;669;50.206;9.998;2024-02-15T03:45:17;9.30;53.00
1351;DHT22;669;50.206;9.998;2024-02-15T03:47:45;9.30;53.80
1351;DHT22;669;50.206;9.998;2024-02-15T03:50:15;9.30;53.20
1351;DHT22;669;50.206;9.998;2024-02-15T03:52:43;9.30;53.30
1351;DHT22;669;50.206;9.998;2024-02-15T03:55:11;9.20;53.40
1351;DHT22;669;50.206;9.998;2024-02-15T03:57:40;9.20;53.40
1351;DHT22;669;50.206;9.998;2024-02-15T04:00:11;9.20;53.50
1351;DHT22;669;50.206;9.998;2024-02-15T04:02:42;9.20;53.60
1351;DHT22;669;50.206;9.998;2024-02-15T04:05:11;9.20;53.60
1351;DHT22;669;50.206;9.998;2024-02-15T04:07:40;9.10;53.50
1351;DHT22;669;50.206;9.998;2024-02-15T04:10:10;9.10;53.60
1351;DHT22;669;50.206;9.998;2024-02-15T04:12:39;9.10;53.60
1351;DHT22;669;50.206;9.998;2024-02-15T04:15:09;9.10;53.60
1351;DHT22;669;50.206;9.998;2024-02-15T04:17:41;9.10;53.60
1351;DHT22;669;50.206;9.998;2024-02-15T04:20:11;9.10;53.70
1351;DHT22;669;50.206;9.998;2024-02-15T04:22:42;9.10;53.70
1351;DHT22;669;50.206;9.998;2024-02-15T04:25:11;9.10;53.70
1351;DHT22;669;50.206;9.998;2024-02-15T04:27:44;9.10;53.70
1351;DHT22;669;50.206;9.998;2024-02-15T04:30:13;9.10;53.80
1351;DHT22;669;50.206;9.998;2024-02-15T04:32:43;9.20;53.90
1351;DHT22;669;50.206;9.998;2024-02-15T04:35:11;9.10;53.80
1351;DHT22;669;50.206;9.998;2024-02-15T04:37:42;9.10;53.80
1351;DHT22;669;50.206;9.998;2024-02-15T04:40:10;9.20;54.00
1351;DHT22;669;50.206;9.998;2024-02-15T04:42:40;9.20;54.10
1351;DHT22;669;50.206;9.998;2024-02-15T04:45:11;9.20;54.20
1351;DHT22;669;50.206;9.998;2024-02-15T04:47:41;9.20;54.30
1351;DHT22;669;50.206;9.998;2024-02-15T04:50:10;9.20;54.40
1351;DHT22;669;50.206;9.998;2024-02-15T04:52:38;9.10;54.50
1351;DHT22;669;50.206;9.998;2024-02-15T04:55:08;9.10;54.50
1351;DHT22;669;50.206;9.998;2024-02-15T04:57:35;9.10;54.60
1351;DHT22;669;50.206;9.998;2024-02-15T05:00:05;9.10;54.60
1351;DHT22;669;50.206;9.998;2024-02-15T05:02:37;9.10;54.70
1351;DHT22;669;50.206;9.998;2024-02-15T05:05:08;9.20;54.80
1351;DHT22;669;50.206;9.998;2024-02-15T05:07:36;9.10;54.80
1351;DHT22;669;50.206;9.998;2024-02-15T05:10:08;9.10;54.90
1351;DHT22;669;50.206;9.998;2024-02-15T05:12:37;9.10;55.00
1351;DHT22;669;50.206;9.998;2024-02-15T05:15:07;9.10;55.00
1351;DHT22;669;50.206;9.998;2024-02-15T05:17:39;9.10;55.10
1351;DHT22;669;50.206;9.998;2024-02-15T05:20:10;9.10;55.10
1351;DHT22;669;50.206;9.998;2024-02-15T05:22:40;9.10;55.10
1351;DHT22;669;50.206;9.998;2024-02-15T05:25:17;9.10;55.10
1351;DHT22;669;50.206;9.998;2024-02-15T05:27:51;9.10;55.10
1351;DHT22;669;50.206;9.998;2024-02-15T05:30:20;9.10;55.20
1351;DHT22;669;50.206;9.998;2024-02-15T05:32:49;9.00;55.10
1351;DHT22;669;50.206;9.998;2024-02-15T05:35:19;9.00;55.00
1351;DHT22;669;50.206;9.998;2024-02-15T05:37:47;9.00;55.20
1351;DHT22;669;50.206;9.998;2024-02-15T05:40:16;9.00;55.20
1351;DHT22;669;50.206;9.998;2024-02-15T05:42:46;9.00;55.10
1351;DHT22;669;50.206;9.998;2024-02-15T05:45:30;9.00;55.10
1351;DHT22;669;50.206;9.998;2024-02-15T05:48:02;9.00;55.20
1351;DHT22;669;50.206;9.998;2024-02-15T05:50:33;9.00;55.30
1351;DHT22;669;50.206;9.998;2024-02-15T05:53:01;9.00;55.20
1351;DHT22;669;50.206;9.998;2024-02-15T05:55:31;9.00;55.20
1351;DHT22;669;50.206;9.998;2024-02-15T05:58:02;8.90;55.10
1351;DHT22;669;50.206;9.998;2024-02-15T06:00:30;9.00;55.00
1351;DHT22;669;50.206;9.998;2024-02-15T06:03:00;9.00;55.10
1351;DHT22;669;50.206;9.998;2024-02-15T06:05:30;9.00;55.00
1351;DHT22;669;50.206;9.998;2024-02-15T06:07:58;8.90;54.90
1351;DHT22;669;50.206;9.998;2024-02-15T06:10:26;8.90;54.90
1351;DHT22;669;50.206;9.998;2024-02-15T06:12:57;8.90;54.90
1351;DHT22;669;50.206;9.998;2024-02-15T06:15:26;8.90;54.90
1351;DHT22;669;50.206;9.998;2024-02-15T06:17:54;8.90;54.90
1351;DHT22;669;50.206;9.998;2024-02-15T06:20:22;8.80;54.90
1351;DHT22;669;50.206;9.998;2024-02-15T06:22:51;8.80;54.90
1351;DHT22;669;50.206;9.998;2024-02-15T06:25:19;8.80;54.90
1351;DHT22;669;50.206;9.998;2024-02-15T06:27:49;8.80;54.90
1351;DHT22;669;50.206;9.998;2024-02-15T06:30:26;8.70;54.80
1351;DHT22;669;50.206;9.998;2024-02-15T06:33:11;8.70;54.80
1351;DHT22;669;50.206;9.998;2024-02-15T06:35:57;8.70;54.80
1351;DHT22;669;50.206;9.998;2024-02-15T06:38:42;8.70;54.80
1351;DHT22;669;50.206;9.998;2024-02-15T06:41:28;8.70;54.80
1351;DHT22;669;50.206;9.998;2024-02-15T06:43:56;8.60;54.70
1351;DHT22;669;50.206;9.998;2024-02-15T06:46:25;8.70;54.80
1351;DHT22;669;50.206;9.998;2024-02-15T06:48:53;8.60;54.80
1351;DHT22;669;50.206;9.998;2024-02-15T06:51:21;8.60;54.70
1351;DHT22;669;50.206;9.998;2024-02-15T06:53:51;8.60;54.70
1351;DHT22;669;50.206;9.998;2024-02-15T06:56:22;8.60;54.70
1351;DHT22;669;50.206;9.998;2024-02-15T06:58:51;8.60;54.70
1351;DHT22;669;50.206;9.998;2024-02-15T07:01:20;8.70;54.70
1351;DHT22;669;50.206;9.998;2024-02-15T07:03:50;8.70;54.70
1351;DHT22;669;50.206;9.998;2024-02-15T07:06:18;8.70;54.70
1351;DHT22;669;50.206;9.998;2024-02-15T07:08:46;8.70;54.70
1351;DHT22;669;50.206;9.998;2024-02-15T07:11:14;8.70;54.60
1351;DHT22;669;50.206;9.998;2024-02-15T07:13:42;8.70;54.70
1351;DHT22;669;50.206;9.998;2024-02-15T07:16:10;8.80;54.70
1351;DHT22;669;50.206;9.998;2024-02-15T07:18:40;8.80;54.70
1351;DHT22;669;50.206;9.998;2024-02-15T07:21:09;8.80;54.70
1351;DHT22;669;50.206;9.998;2024-02-15T07:23:40;8.80;54.80
1351;DHT22;669;50.206;9.998;2024-02-15T07:26:09;8.80;55.60
1351;DHT22;669;50.206;9.998;2024-02-15T07:28:39;8.80;54.90
1351;DHT22;669;50.206;9.998;2024-02-15T07:31:07;8.80;54.90
1351;DHT22;669;50.206;9.998;2024-02-15T07:33:35;8.80;54.90
1351;DHT22;669;50.206;9.998;2024-02-15T07:36:04;8.80;54.90
1351;DHT22;669;50.206;9.998;2024-02-15T07:38:34;8.80;54.90
1351;DHT22;669;50.206;9.998;2024-02-15T07:41:02;8.80;54.80
1351;DHT22;669;50.206;9.998;2024-02-15T07:43:30;8.90;54.80
1351;DHT22;669;50.206;9.998;2024-02-15T07:46:00;8.90;54.80
1351;DHT22;669;50.206;9.998;2024-02-15T07:48:28;8.90;54.80
1351;DHT22;669;50.206;9.998;2024-02-15T07:50:56;9.00;54.90
1351;DHT22;669;50.206;9.998;2024-02-15T07:53:25;9.00;54.90
1351;DHT22;669;50.206;9.998;2024-02-15T07:55:54;9.00;54.80
1351;DHT22;669;50.206;9.998;2024-02-15T07:58:22;9.10;54.90
1351;DHT22;669;50.206;9.998;2024-02-15T08:00:50;9.10;55.00
1351;DHT22;669;50.206;9.998;2024-02-15T08:03:18;9.10;55.10
1351;DHT22;669;50.206;9.998;2024-02-15T08:05:46;9.10;55.10
1351;DHT22;669;50.206;9.998;2024-02-15T08:08:14;9.20;55.20
1351;DHT22;669;50.206;9.998;2024-02-15T08:10:42;9.20;55.20
1351;DHT22;669;50.206;9.998;2024-02-15T08:13:13;9.30;55.30
1351;DHT22;669;50.206;9.998;2024-02-15T08:15:42;9.30;55.30
1351;DHT22;669;50.206;9.998;2024-02-15T08:18:11;9.30;55.30
1351;DHT22;669;50.206;9.998;2024-02-15T08:20:39;9.40;55.40
1351;DHT22;669;50.206;9.998;2024-02-15T08:23:07;9.40;55.40
1351;DHT22;669;50.206;9.998;2024-02-15T08:25:38;9.50;55.40
1351;DHT22;669;50.206;9.998;2024-02-15T08:28:07;9.50;55.50
1351;DHT22;669;50.206;9.998;2024-02-15T08:30:37;9.50;55.60
1351;DHT22;669;50.206;9.998;2024-02-15T08:33:05;9.60;55.80
1351;DHT22;669;50.206;9.998;2024-02-15T08:35:33;9.60;55.90
1351;DHT22;669;50.206;9.998;2024-02-15T08:38:01;9.70;56.70
1351;DHT22;669;50.206;9.998;2024-02-15T08:40:32;9.70;56.20
1351;DHT22;669;50.206;9.998;2024-02-15T08:43:00;9.70;56.20
1351;DHT22;669;50.206;9.998;2024-02-15T08:45:28;9.80;56.40
1351;DHT22;669;50.206;9.998;2024-02-15T08:47:58;9.80;56.40
1351;DHT22;669;50.206;9.998;2024-02-15T08:50:26;9.80;56.50
1351;DHT22;669;50.206;9.998;2024-02-15T08:52:54;9.80;56.50
1351;DHT22;669;50.206;9.998;2024-02-15T08:55:23;9.80;56.70
1351;DHT22;669;50.206;9.998;2024-02-15T08:57:54;9.80;56.70
1351;DHT22;669;50.206;9.998;2024-02-15T09:00:22;9.90;56.80
1351;DHT22;669;50.206;9.998;2024-02-15T09:02:53;9.90;56.90
1351;DHT22;669;50.206;9.998;2024-02-15T09:05:24;9.90;57.20
1351;DHT22;669;50.206;9.998;2024-02-15T09:07:53;9.90;57.30
1351;DHT22;669;50.206;9.998;2024-02-15T09:10:21;9.90;57.30
1351;DHT22;669;50.206;9.998;2024-02-15T09:12:50;9.90;57.40
1351;DHT22;669;50.206;9.998;2024-02-15T09:15:18;10.00;56.50
1351;DHT22;669;50.206;9.998;2024-02-15T09:17:46;10.00;55.90
1351;DHT22;669;50.206;9.998;2024-02-15T09:20:15;10.00;56.00
1351;DHT22;669;50.206;9.998;2024-02-15T09:22:49;10.10;55.60
1351;DHT22;669;50.206;9.998;2024-02-15T09:25:18;10.10;54.10
1351;DHT22;669;50.206;9.998;2024-02-15T09:27:46;10.10;53.50
1351;DHT22;669;50.206;9.998;2024-02-15T09:30:14;10.10;53.60
1351;DHT22;669;50.206;9.998;2024-02-15T09:32:44;10.10;52.80
1351;DHT22;669;50.206;9.998;2024-02-15T09:35:13;10.10;51.70
1351;DHT22;669;50.206;9.998;2024-02-15T09:37:45;10.00;50.40
1351;DHT22;669;50.206;9.998;2024-02-15T09:40:17;10.10;50.80
1351;DHT22;669;50.206;9.998;2024-02-15T09:42:46;10.10;50.50
1351;DHT22;669;50.206;9.998;2024-02-15T09:45:16;10.10;49.60
1351;DHT22;669;50.206;9.998;2024-02-15T09:47:45;10.10;49.20
1351;DHT22;669;50.206;9.998;2024-02-15T09:50:16;10.10;48.30
1351;DHT22;669;50.206;9.998;2024-02-15T09:52:49;10.10;48.00
1351;DHT22;669;50.206;9.998;2024-02-15T09:55:19;10.20;47.60
1351;DHT22;669;50.206;9.998;2024-02-15T09:57:50;10.20;47.90
1351;DHT22;669;50.206;9.998;2024-02-15T10:00:19;10.20;46.00
1351;DHT22;669;50.206;9.998;2024-02-15T10:02:49;10.20;46.80
1351;DHT22;669;50.206;9.998;2024-02-15T10:05:19;10.30;47.20
1351;DHT22;669;50.206;9.998;2024-02-15T10:07:49;10.30;46.00
1351;DHT22;669;50.206;9.998;2024-02-15T10:10:20;10.40;46.10
1351;DHT22;669;50.206;9.998;2024-02-15T10:12:49;10.40;44.90
1351;DHT22;669;50.206;9.998;2024-02-15T10:15:29;10.50;44.50
1351;DHT22;669;50.206;9.998;2024-02-15T10:18:00;10.50;42.50
1351;DHT22;669;50.206;9.998;2024-02-15T10:20:29;10.50;40.40
1351;DHT22;669;50.206;9.998;2024-02-15T10:23:10;10.50;39.40
1351;DHT22;669;50.206;9.998;2024-02-15T10:25:40;10.60;40.00
1351;DHT22;669;50.206;9.998;2024-02-15T10:28:09;10.80;40.20
1351;DHT22;669;50.206;9.998;2024-02-15T10:30:38;10.80;38.60
1351;DHT22;669;50.206;9.998;2024-02-15T10:33:07;10.80;37.40
1351;DHT22;669;50.206;9.998;2024-02-15T10:35:36;10.90;35.40
1351;DHT22;669;50.206;9.998;2024-02-15T10:38:08;10.90;33.60
1351;DHT22;669;50.206;9.998;2024-02-15T10:40:38;10.90;33.30
1351;DHT22;669;50.206;9.998;2024-02-15T10:43:09;11.00;32.50
1351;DHT22;669;50.206;9.998;2024-02-15T10:45:40;11.00;32.90
1351;DHT22;669;50.206;9.998;2024-02-15T10:48:08;11.10;32.40
1351;DHT22;669;50.206;9.998;2024-02-15T10:50:39;11.10;30.00
1351;DHT22;669;50.206;9.998;2024-02-15T10:53:15;11.20;30.60
1351;DHT22;669;50.206;9.998;2024-02-15T10:55:57;11.30;30.50
1351;DHT22;669;50.206;9.998;2024-02-15T10:58:31;11.40;30.70
1351;DHT22;669;50.206;9.998;2024-02-15T11:01:02;11.50;29.20
1351;DHT22;669;50.206;9.998;2024-02-15T11:03:36;11.60;27.50
1351;DHT22;669;50.206;9.998;2024-02-15T11:06:09;11.70;27.80
1351;DHT22;669;50.206;9.998;2024-02-15T11:08:38;11.70;26.20
1351;DHT22;669;50.206;9.998;2024-02-15T11:11:07;11.80;25.10
1351;DHT22;669;50.206;9.998;2024-02-15T11:13:38;11.80;23.90
1351;DHT22;669;50.206;9.998;2024-02-15T11:16:06;11.80;22.90
1351;DHT22;669;50.206;9.998;2024-02-15T11:18:45;11.90;23.90
1351;DHT22;669;50.206;9.998;2024-02-15T11:21:16;12.00;23.30
1351;DHT22;669;50.206;9.998;2024-02-15T11:23:45;12.10;23.00
1351;DHT22;669;50.206;9.998;2024-02-15T11:26:45;12.20;22.30
1351;DHT22;669;50.206;9.998;2024-02-15T11:29:49;12.30;22.30
1351;DHT22;669;50.206;9.998;2024-02-15T11:32:35;12.50;20.20
1351;DHT22;669;50.206;9.998;2024-02-15T11:35:07;12.60;18.50
1351;DHT22;669;50.206;9.998;2024-02-15T11:37:56;12.70;19.40
1351;DHT22;669;50.206;9.998;2024-02-15T11:40:29;12.80;17.90
1351;DHT22;669;50.206;9.998;2024-02-15T11:43:46;12.80;15.30
1351;DHT22;669;50.206;9.998;2024-02-15T11:46:17;12.80;15.80
1351;DHT22;669;50.206;9.998;2024-02-15T11:48:45;12.90;16.30
1351;DHT22;669;50.206;9.998;2024-02-15T11:51:25;13.00;14.50
1351;DHT22;669;50.206;9.998;2024-02-15T11:54:04;13.00;11.50
1351;DHT22;669;50.206;9.998;2024-02-15T11:56:48;13.00;12.60
1351;DHT22;669;50.206;9.998;2024-02-15T11:59:20;13.10;11.90
1351;DHT22;669;50.206;9.998;2024-02-15T12:01:59;13.20;11.80
1351;DHT22;669;50.206;9.998;2024-02-15T12:04:45;13.30;12.40
1351;DHT22;669;50.206;9.998;2024-02-15T12:07:31;13.60;11.90
1351;DHT22;669;50.206;9.998;2024-02-15T12:10:17;13.90;10.30
1351;DHT22;669;50.206;9.998;2024-02-15T12:13:02;14.20;10.50
1351;DHT22;669;50.206;9.998;2024-02-15T12:15:59;14.50;7.80
1351;DHT22;669;50.206;9.998;2024-02-15T12:18:46;14.50;6.50
1351;DHT22;669;50.206;9.998;2024-02-15T12:21:23;14.70;7.20
1351;DHT22;669;50.206;9.998;2024-02-15T12:23:52;15.00;6.30
1351;DHT22;669;50.206;9.998;2024-02-15T12:26:20;15.30;4.80
1351;DHT22;669;50.206;9.998;2024-02-15T12:28:51;15.70;4.20
1351;DHT22;669;50.206;9.998;2024-02-15T12:31:23;15.80;1.60
1351;DHT22;669;50.206;9.998;2024-02-15T12:34:00;15.80;2.10
1351;DHT22;669;50.206;9.998;2024-02-15T12:36:33;15.70;1.90
1351;DHT22;669;50.206;9.998;2024-02-15T12:39:04;15.50;1.50
1351;DHT22;669;50.206;9.998;2024-02-15T12:41:38;15.20;2.90
1351;DHT22;669;50.206;9.998;2024-02-15T12:44:08;15.20;2.40
1351;DHT22;669;50.206;9.998;2024-02-15T12:46:38;15.10;2.70
1351;DHT22;669;50.206;9.998;2024-02-15T12:49:17;15.10;2.60
1351;DHT22;669;50.206;9.998;2024-02-15T12:52:33;15.00;2.80
1351;DHT22;669;50.206;9.998;2024-02-15T12:55:09;14.90;2.70
1351;DHT22;669;50.206;9.998;2024-02-15T12:57:38;14.90;2.70
1351;DHT22;669;50.206;9.998;2024-02-15T13:00:09;14.80;2.60
1351;DHT22;669;50.206;9.998;2024-02-15T13:02:46;14.80;2.70
1351;DHT22;669;50.206;9.998;2024-02-15T13:05:16;14.80;2.70
1351;DHT22;669;50.206;9.998;2024-02-15T13:07:46;14.80;2.60
1351;DHT22;669;50.206;9.998;2024-02-15T13:10:15;14.60;2.50
1351;DHT22;669;50.206;9.998;2024-02-15T13:12:43;14.50;2.40
1351;DHT22;669;50.206;9.998;2024-02-15T13:15:13;14.50;3.40
1351;DHT22;669;50.206;9.998;2024-02-15T13:17:44;14.50;3.70
1351;DHT22;669;50.206;9.998;2024-02-15T13:20:14;14.50;3.10
1351;DHT22;669;50.206;9.998;2024-02-15T13:22:43;14.50;3.90
1351;DHT22;669;50.206;9.998;2024-02-15T13:25:14;14.50;3.70
1351;DHT22;669;50.206;9.998;2024-02-15T13:27:43;14.50;3.70
1351;DHT22;669;50.206;9.998;2024-02-15T13:30:13;14.50;2.40
1351;DHT22;669;50.206;9.998;2024-02-15T13:32:41;14.40;3.50
1351;DHT22;669;50.206;9.998;2024-02-15T13:35:10;14.40;4.10
1351;DHT22;669;50.206;9.998;2024-02-15T13:37:42;14.30;4.00
1351;DHT22;669;50.206;9.998;2024-02-15T13:40:11;14.30;3.70
1351;DHT22;669;50.206;9.998;2024-02-15T13:42:43;14.30;3.50
1351;DHT22;669;50.206;9.998;2024-02-15T13:45:16;14.30;4.10
1351;DHT22;669;50.206;9.998;2024-02-15T13:47:45;14.30;3.60
1351;DHT22;669;50.206;9.998;2024-02-15T13:50:14;14.20;3.80
1351;DHT22;669;50.206;9.998;2024-02-15T13:52:44;14.20;4.50
1351;DHT22;669;50.206;9.998;2024-02-15T13:55:13;14.20;3.30
1351;DHT22;669;50.206;9.998;2024-02-15T13:57:42;14.20;3.40
1351;DHT22;669;50.206;9.998;2024-02-15T14:00:11;14.20;3.80
1351;DHT22;669;50.206;9.998;2024-02-15T14:02:49;14.10;4.00
1351;DHT22;669;50.206;9.998;2024-02-15T14:05:18;14.00;3.80
1351;DHT22;669;50.206;9.998;2024-02-15T14:07:49;13.90;3.60
1351;DHT22;669;50.206;9.998;2024-02-15T14:10:18;13.80;4.40
1351;DHT22;669;50.206;9.998;2024-02-15T14:12:48;13.80;5.40
1351;DHT22;669;50.206;9.998;2024-02-15T14:15:16;13.70;6.10
1351;DHT22;669;50.206;9.998;2024-02-15T14:17:45;13.70;6.60
1351;DHT22;669;50.206;9.998;2024-02-15T14:20:13;13.60;6.80
1351;DHT22;669;50.206;9.998;2024-02-15T14:22:43;13.40;6.60
1351;DHT22;669;50.206;9.998;2024-02-15T14:25:13;13.30;7.10
1351;DHT22;669;50.206;9.998;2024-02-15T14:27:41;13.20;7.50
1351;DHT22;669;50.206;9.998;2024-02-15T14:30:10;13.20;8.10
1351;DHT22;669;50.206;9.998;2024-02-15T14:32:57;13.10;7.60
1351;DHT22;669;50.206;9.998;2024-02-15T14:35:32;13.00;8.10
1351;DHT22;669;50.206;9.998;2024-02-15T14:38:02;13.00;8.60
1351;DHT22;669;50.206;9.998;2024-02-15T14:40:36;12.90;8.70
1351;DHT22;669;50.206;9.998;2024-02-15T14:43:07;12.90;8.90
1351;DHT22;669;50.206;9.998;2024-02-15T14:45:35;12.90;8.90
1351;DHT22;669;50.206;9.998;2024-02-15T14:48:05;12.90;9.50
1351;DHT22;669;50.206;9.998;2024-02-15T14:50:35;12.90;9.70
1351;DHT22;669;50.206;9.998;2024-02-15T14:53:03;12.90;9.50
1351;DHT22;669;50.206;9.998;2024-02-15T14:55:31;12.90;9.70
1351;DHT22;669;50.206;9.998;2024-02-15T14:58:01;12.90;9.60
1351;DHT22;669;50.206;9.998;2024-02-15T15:00:30;12.90;9.10
1351;DHT22;669;50.206;9.998;2024-02-15T15:03:01;12.90;9.60
1351;DHT22;669;50.206;9.998;2024-02-15T15:05:30;12.80;9.60
1351;DHT22;669;50.206;9.998;2024-02-15T15:08:16;12.80;9.60
1351;DHT22;669;50.206;9.998;2024-02-15T15:11:01;12.70;9.50
1351;DHT22;669;50.206;9.998;2024-02-15T15:13:48;12.70;9.50
1351;DHT22;669;50.206;9.998;2024-02-15T15:16:16;12.70;9.50
1351;DHT22;669;50.206;9.998;2024-02-15T15:18:47;12.60;9.50
1351;DHT22;669;50.206;9.998;2024-02-15T15:21:16;12.60;9.90
1351;DHT22;669;50.206;9.998;2024-02-15T15:23:44;12.50;9.70
1351;DHT22;669;50.206;9.998;2024-02-15T15:26:18;12.50;10.20
1351;DHT22;669;50.206;9.998;2024-02-15T15:28:48;12.40;10.20
1351;DHT22;669;50.206;9.998;2024-02-15T15:31:17;12.40;10.20
1351;DHT22;669;50.206;9.998;2024-02-15T15:33:47;12.40;10.40
1351;DHT22;669;50.206;9.998;2024-02-15T15:36:16;12.30;10.50
1351;DHT22;669;50.206;9.998;2024-02-15T15:38:46;12.30;10.80
1351;DHT22;669;50.206;9.998;2024-02-15T15:41:15;12.20;10.90
1351;DHT22;669;50.206;9.998;2024-02-15T15:43:43;12.20;11.10
1351;DHT22;669;50.206;9.998;2024-02-15T15:46:14;12.10;11.10
1351;DHT22;669;50.206;9.998;2024-02-15T15:48:42;12.10;11.30
1351;DHT22;669;50.206;9.998;2024-02-15T15:51:12;12.00;11.40
1351;DHT22;669;50.206;9.998;2024-02-15T15:53:41;12.00;11.20
1351;DHT22;669;50.206;9.998;2024-02-15T15:56:12;12.00;11.50
1351;DHT22;669;50.206;9.998;2024-02-15T15:58:40;12.00;11.70
1351;DHT22;669;50.206;9.998;2024-02-15T16:01:13;11.90;11.80
1351;DHT22;669;50.206;9.998;2024-02-15T16:03:42;11.80;11.70
1351;DHT22;669;50.206;9.998;2024-02-15T16:06:10;11.80;12.50
1351;DHT22;669;50.206;9.998;2024-02-15T16:08:39;11.70;12.90
1351;DHT22;669;50.206;9.998;2024-02-15T16:11:07;11.60;13.80
1351;DHT22;669;50.206;9.998;2024-02-15T16:13:35;11.60;14.50
1351;DHT22;669;50.206;9.998;2024-02-15T16:16:04;11.50;15.00
1351;DHT22;669;50.206;9.998;2024-02-15T16:18:34;11.40;15.50
1351;DHT22;669;50.206;9.998;2024-02-15T16:21:02;11.40;16.20
1351;DHT22;669;50.206;9.998;2024-02-15T16:23:30;11.30;16.70
1351;DHT22;669;50.206;9.998;2024-02-15T16:25:58;11.20;15.80
1351;DHT22;669;50.206;9.998;2024-02-15T16:28:26;11.00;15.60
1351;DHT22;669;50.206;9.998;2024-02-15T16:30:54;10.90;16.40
1351;DHT22;669;50.206;9.998;2024-02-15T16:33:22;10.80;16.30
1351;DHT22;669;50.206;9.998;2024-02-15T16:35:52;10.70;16.60
1351;DHT22;669;50.206;9.998;2024-02-15T16:38:20;10.60;17.40
1351;DHT22;669;50.206;9.998;2024-02-15T16:40:50;10.50;18.00
1351;DHT22;669;50.206;9.998;2024-02-15T16:43:19;10.50;19.20
1351;DHT22;669;50.206;9.998;2024-02-15T16:45:48;10.40;19.30
1351;DHT22;669;50.206;9.998;2024-02-15T16:48:16;10.30;19.10
1351;DHT22;669;50.206;9.998;2024-02-15T16:50:44;10.20;19.90
1351;DHT22;669;50.206;9.998;2024-02-15T16:53:15;10.20;20.50